Time;durP1;ratioP1;P1;durP2;ratioP2;P2;SDS_P1;SDS_P2;PMS_P1;PMS_P2;Temp;Humidity;BMP_temperature;BMP_pressure;BME280_temperature;BME280_humidity;BME280_pressure;Samples;Min_cycle;Max_cycle;Signal;HPM_P1;HPM_P2
2023/05/07 00:02:58;;;;;;;2.00;1.80;;;;;;;6.89;90.63;98847.58;436496;1247;99368;-44
2023/05/07 00:13:02;;;;;;;1.70;1.50;;;;;;;6.84;90.38;98845.91;436439;1251;112250;-44
2023/05/07 00:23:06;;;;;;;2.30;1.70;;;;;;;6.77;90.77;98850.30;436453;1251;105716;-43
2023/05/07 00:33:13;;;;;;;2.30;2.10;;;;;;;6.71;90.86;98849.69;436494;1248;99025;-41
2023/05/07 00:43:21;;;;;;;2.70;2.30;;;;;;;6.70;90.75;98846.42;436433;1247;107072;-42
2023/05/07 00:53:26;;;;;;;2.30;2.10;;;;;;;6.65;91.08;98852.43;436439;1247;99355;-42
2023/05/07 01:03:30;;;;;;;2.90;2.20;;;;;;;6.62;91.15;98857.75;436411;1248;112844;-43
2023/05/07 01:13:36;;;;;;;4.20;2.40;;;;;;;6.59;91.35;98868.09;437521;1244;108219;-42
2023/05/07 01:23:41;;;;;;;2.10;1.90;;;;;;;6.55;91.24;98866.30;437438;1250;99212;-43
2023/05/07 01:33:49;;;;;;;2.30;2.20;;;;;;;6.55;91.07;98868.13;437307;1261;107522;-45
2023/05/07 01:43:54;;;;;;;2.60;2.40;;;;;;;6.51;91.22;98877.33;437380;1247;99265;-42
2023/05/07 01:53:58;;;;;;;2.80;2.30;;;;;;;6.40;91.62;98887.11;437442;1247;112452;-43
2023/05/07 02:04:02;;;;;;;2.80;2.60;;;;;;;6.37;91.65;98891.05;437400;1247;107626;-43
2023/05/07 02:14:09;;;;;;;2.50;2.30;;;;;;;6.26;91.82;98887.61;437314;1250;99246;-42
2023/05/07 02:24:12;;;;;;;2.50;1.60;;;;;;;6.03;92.04;98897.16;437377;1250;109179;-41
2023/05/07 02:34:16;;;;;;;2.00;1.80;;;;;;;5.87;92.49;98900.20;437253;1250;99365;-43
2023/05/07 02:44:19;;;;;;;2.20;1.70;;;;;;;5.77;92.50;98900.52;437365;1250;110694;-42
2023/05/07 02:54:27;;;;;;;3.20;1.90;;;;;;;5.70;92.74;98905.36;437188;1250;109176;-40
2023/05/07 03:04:30;;;;;;;5.40;2.10;;;;;;;5.62;92.89;98900.38;437316;1250;99938;-43
2023/05/07 03:14:34;;;;;;;2.80;1.60;;;;;;;5.47;92.97;98907.00;437453;1250;108784;-42
2023/05/07 03:24:37;;;;;;;3.00;1.40;;;;;;;5.37;93.28;98913.41;437389;1247;99082;-41
2023/05/07 03:34:41;;;;;;;1.70;1.40;;;;;;;5.37;92.95;98932.36;437407;1247;111714;-41
2023/05/07 03:44:45;;;;;;;1.10;1.00;;;;;;;5.41;92.74;98945.15;437007;1250;384276;-41
2023/05/07 03:54:49;;;;;;;2.30;1.30;;;;;;;5.45;92.56;98959.48;437311;1250;99234;-41
2023/05/07 04:04:53;;;;;;;1.90;1.40;;;;;;;5.41;92.40;98966.59;437411;1250;107151;-53
2023/05/07 04:15:01;;;;;;;2.70;1.20;;;;;;;5.42;92.44;98982.37;437443;1248;99232;-41
2023/05/07 04:25:05;;;;;;;3.90;1.30;;;;;;;5.38;92.51;98993.05;437468;1250;112042;-41
2023/05/07 04:35:09;;;;;;;1.10;1.00;;;;;;;5.29;92.63;99001.98;437477;1250;108682;-42
2023/05/07 04:45:13;;;;;;;3.80;1.50;;;;;;;5.29;92.54;99009.07;437478;1246;99265;-41
2023/05/07 04:55:16;;;;;;;2.00;1.50;;;;;;;5.36;92.51;99026.48;437196;1250;107620;-42
2023/05/07 05:05:21;;;;;;;1.80;1.50;;;;;;;5.29;92.53;99036.50;437550;1247;99844;-41
2023/05/07 05:15:25;;;;;;;1.60;0.90;;;;;;;5.32;92.49;99047.27;437487;1250;109463;-42
2023/05/07 05:25:29;;;;;;;0.70;0.70;;;;;;;5.38;92.31;99056.12;437459;1247;107273;-42
2023/05/07 05:35:36;;;;;;;2.80;1.10;;;;;;;5.49;92.22;99072.34;437487;1250;99706;-42
2023/05/07 05:45:40;;;;;;;4.20;0.80;;;;;;;5.48;92.20;99079.01;437401;1247;107604;-42
2023/05/07 05:55:44;;;;;;;1.00;0.90;;;;;;;5.54;91.94;99093.02;437464;1247;98819;-42
2023/05/07 06:05:48;;;;;;;2.60;1.60;;;;;;;5.68;91.90;99099.16;437470;1247;112895;-42
2023/05/07 06:15:51;;;;;;;2.20;2.00;;;;;;;5.66;91.67;99103.41;437464;1250;109461;-41
2023/05/07 06:25:55;;;;;;;1.60;1.40;;;;;;;5.64;91.70;99109.33;437645;1250;99202;-41
2023/05/07 06:35:58;;;;;;;2.00;1.70;;;;;;;5.61;91.63;99124.71;437470;1250;108033;-41
2023/05/07 06:46:02;;;;;;;3.80;1.40;;;;;;;5.63;91.72;99125.05;437430;1250;99337;-41
2023/05/07 06:56:06;;;;;;;1.10;1.10;;;;;;;5.69;91.57;99129.45;437528;1247;110762;-42
2023/05/07 07:06:13;;;;;;;2.00;1.80;;;;;;;5.76;91.25;99136.55;437352;1250;107449;-45
2023/05/07 07:16:17;;;;;;;2.10;1.10;;;;;;;5.84;90.93;99143.57;437461;1250;99218;-42
2023/05/07 07:26:21;;;;;;;1.00;0.90;;;;;;;5.86;90.67;99150.89;437510;1250;108911;-42
2023/05/07 07:46:45;;;;;;;1.90;1.70;;;;;;;5.94;90.42;99157.58;437368;1250;112212;-43
2023/05/07 07:56:49;;;;;;;1.30;1.10;;;;;;;6.05;89.97;99172.21;437466;1250;108368;-42
2023/05/07 08:16:56;;;;;;;2.30;1.60;;;;;;;6.29;89.75;99191.00;437638;1248;108374;-41
2023/05/07 08:27:00;;;;;;;2.50;1.50;;;;;;;6.24;89.68;99196.02;437609;1250;99104;-41
2023/05/07 08:37:05;;;;;;;2.40;1.70;;;;;;;6.34;89.15;99212.80;437438;1250;111873;-44
2023/05/07 08:47:10;;;;;;;1.90;1.40;;;;;;;6.52;89.02;99222.41;437389;1250;107158;-42
2023/05/07 08:57:14;;;;;;;1.60;1.50;;;;;;;6.62;88.82;99235.89;437612;1250;99267;-41
2023/05/07 09:17:22;;;;;;;2.50;1.80;;;;;;;6.67;87.87;99253.00;437198;1247;98014;-41
2023/05/07 09:27:26;;;;;;;3.40;3.00;;;;;;;6.62;87.75;99255.14;437381;1250;111927;-41
2023/05/07 09:37:31;;;;;;;4.00;2.70;;;;;;;6.52;87.46;99269.42;437395;1250;109271;-42
2023/05/07 09:57:48;;;;;;;3.90;3.60;;;;;;;6.73;87.74;99278.96;437300;1247;106750;-42
2023/05/07 10:07:53;;;;;;;3.30;2.70;;;;;;;6.60;87.38;99286.92;437372;1250;99215;-42
2023/05/07 10:17:57;;;;;;;5.30;4.20;;;;;;;6.62;87.22;99289.30;437487;1250;112589;-42
2023/05/07 10:28:06;;;;;;;4.10;3.00;;;;;;;6.83;87.13;99303.23;437433;1250;107178;-42
2023/05/07 10:38:11;;;;;;;6.30;3.50;;;;;;;6.71;86.71;99316.39;437434;1250;99218;-41
2023/05/07 10:48:16;;;;;;;6.90;4.00;;;;;;;6.77;86.48;99319.72;437466;1250;109912;-43
2023/05/07 10:58:36;;;;;;;4.30;3.40;;;;;;;7.07;86.44;99318.35;437635;1247;99934;-42
2023/05/07 11:09:01;;;;;;;4.70;3.40;;;;;;;7.14;86.09;99316.89;437465;1247;110265;-42
2023/05/07 11:19:05;;;;;;;4.50;3.50;;;;;;;7.35;85.51;99326.73;437477;1250;108345;-41
2023/05/07 11:29:11;;;;;;;8.30;5.30;;;;;;;7.63;84.67;99332.80;437507;1250;99179;-41
2023/05/07 11:49:29;;;;;;;9.10;6.10;;;;;;;7.81;83.91;99358.95;437575;1250;99257;-42
2023/05/07 11:59:39;;;;;;;11.90;6.20;;;;;;;7.86;83.68;99365.30;437562;1250;110710;-42
2023/05/07 12:29:52;;;;;;;6.00;3.90;;;;;;;7.50;82.17;99383.97;437328;1250;107686;-43
2023/05/07 12:50:09;;;;;;;6.20;4.50;;;;;;;7.72;81.74;99397.89;437393;1251;111562;-42
2023/05/07 13:00:15;;;;;;;9.50;4.10;;;;;;;8.21;80.61;99402.39;437463;1248;109012;-41
2023/05/07 13:10:22;;;;;;;5.70;4.50;;;;;;;8.56;79.78;99396.64;437436;1248;97998;-42
2023/05/07 13:20:26;;;;;;;4.60;4.10;;;;;;;8.92;78.14;99395.49;437418;1248;107908;-43
2023/05/07 13:30:30;;;;;;;6.90;5.40;;;;;;;8.74;76.59;99401.52;437556;1250;97907;-42
2023/05/07 13:40:32;;;;;;;8.90;5.50;;;;;;;8.13;76.56;99417.63;437607;1260;111344;-42
2023/05/07 13:50:36;;;;;;;7.60;5.70;;;;;;;8.00;77.15;99421.40;437420;1250;107837;-44
2023/05/07 14:00:40;;;;;;;7.90;5.80;;;;;;;7.88;76.45;99427.20;437548;1250;98385;-41
2023/05/07 14:10:44;;;;;;;8.60;6.20;;;;;;;7.70;76.91;99423.92;437357;1250;108187;-41
2023/05/07 14:20:48;;;;;;;10.70;7.20;;;;;;;7.58;77.31;99439.58;437493;1250;98350;-42
2023/05/07 14:30:56;;;;;;;8.80;6.50;;;;;;;7.64;77.44;99445.80;437413;1248;111969;-41
2023/05/07 14:41:03;;;;;;;5.90;5.30;;;;;;;7.54;77.63;99452.58;437487;1260;107281;-41
2023/05/07 14:51:07;;;;;;;5.80;4.60;;;;;;;7.47;77.17;99456.61;437607;1260;97974;-43
2023/05/07 15:01:10;;;;;;;8.70;6.30;;;;;;;7.49;77.54;99463.64;437458;1258;107242;-40
2023/05/07 15:11:14;;;;;;;9.40;5.90;;;;;;;7.49;77.40;99465.78;437434;1261;99234;-40
2023/05/07 15:21:22;;;;;;;16.20;7.30;;;;;;;7.45;77.61;99473.68;437028;1248;112645;-41
2023/05/07 15:31:27;;;;;;;6.50;5.80;;;;;;;7.36;77.79;99483.20;437372;1250;108612;-41
2023/05/07 15:41:31;;;;;;;7.40;5.20;;;;;;;7.35;77.68;99482.66;434548;1250;3918968;-44
2023/05/07 15:51:35;;;;;;;10.90;6.00;;;;;;;7.26;77.78;99489.69;437458;1250;107883;-42
2023/05/07 16:01:39;;;;;;;7.00;4.50;;;;;;;7.26;77.53;99489.33;437438;1251;99053;-40
2023/05/07 16:11:44;;;;;;;8.90;5.30;;;;;;;7.33;77.80;99494.77;437499;1248;110151;-43
2023/05/07 16:21:48;;;;;;;9.00;6.50;;;;;;;7.25;77.61;99493.64;437326;1250;106399;-42
2023/05/07 16:31:53;;;;;;;10.00;6.40;;;;;;;7.23;77.66;99493.38;437517;1248;99360;-43
2023/05/07 16:42:01;;;;;;;12.10;7.20;;;;;;;7.26;77.75;99494.79;437365;1248;107957;-43
2023/05/07 16:52:04;;;;;;;11.00;8.00;;;;;;;7.18;77.95;99498.00;437408;1260;97898;-41
2023/05/07 17:02:08;;;;;;;7.60;5.30;;;;;;;7.14;77.78;99504.02;437303;1251;111582;-41
2023/05/07 17:12:12;;;;;;;9.50;7.00;;;;;;;7.14;78.04;99511.02;437477;1250;109509;-41
2023/05/07 17:22:16;;;;;;;11.70;7.70;;;;;;;7.13;78.33;99516.19;437561;1248;99209;-41
2023/05/07 17:32:20;;;;;;;9.70;7.00;;;;;;;7.05;78.37;99517.73;437355;1248;108567;-44
2023/05/07 17:42:24;;;;;;;9.50;6.70;;;;;;;7.02;78.53;99530.66;437455;1248;99116;-41
2023/05/07 17:52:28;;;;;;;9.00;7.20;;;;;;;6.97;78.77;99545.69;437627;1250;111323;-41
2023/05/07 18:02:35;;;;;;;10.30;5.60;;;;;;;6.90;78.74;99555.98;437348;1248;108765;-41
2023/05/07 18:12:40;;;;;;;9.10;4.90;;;;;;;6.89;78.91;99559.27;437384;1251;98088;-41
2023/05/07 18:22:44;;;;;;;6.30;3.10;;;;;;;6.79;78.78;99561.84;437585;1247;106394;-40
2023/05/07 18:32:48;;;;;;;6.70;3.60;;;;;;;6.75;78.52;99564.63;437354;1250;99229;-42
2023/05/07 18:42:55;;;;;;;6.00;4.40;;;;;;;6.65;78.50;99575.45;437445;1251;111450;-42
2023/05/07 18:53:03;;;;;;;5.00;4.00;;;;;;;6.61;78.08;99583.77;437126;1248;108146;-42
2023/05/07 19:03:07;;;;;;;6.00;3.90;;;;;;;6.58;77.84;99600.69;437533;1248;99216;-40
2023/05/07 19:13:11;;;;;;;4.40;3.50;;;;;;;6.53;77.63;99608.90;437357;1250;108681;-42
2023/05/07 19:23:19;;;;;;;4.80;3.10;;;;;;;6.54;77.28;99615.59;437556;1247;99253;-42
2023/05/07 19:33:25;;;;;;;5.60;3.70;;;;;;;6.51;77.08;99623.38;437478;1246;112895;-45
2023/05/07 19:53:34;;;;;;;5.50;3.60;;;;;;;6.39;76.86;99622.20;437506;1250;99265;-42
2023/05/07 20:03:37;;;;;;;5.30;4.20;;;;;;;6.17;76.86;99625.84;437367;1250;107894;-42
2023/05/07 20:13:41;;;;;;;15.40;9.80;;;;;;;5.88;76.85;99625.52;437366;1250;97972;-42
2023/05/07 20:23:46;;;;;;;10.30;7.40;;;;;;;5.69;77.01;99631.84;437403;1250;113289;-42
2023/05/07 20:33:49;;;;;;;5.30;4.40;;;;;;;5.59;77.35;99640.23;437595;1247;105756;-42
2023/05/07 20:43:53;;;;;;;12.10;9.60;;;;;;;5.48;77.58;99639.11;437536;1247;97998;-42
2023/05/07 20:53:57;;;;;;;22.90;15.00;;;;;;;5.25;77.81;99645.59;437271;1250;107944;-43
2023/05/07 21:04:04;;;;;;;17.30;10.80;;;;;;;4.98;77.96;99651.21;437376;1250;98005;-42
2023/05/07 21:14:08;;;;;;;11.00;7.50;;;;;;;4.69;77.97;99667.48;437314;1247;112982;-41
2023/05/07 21:24:12;;;;;;;9.60;7.10;;;;;;;4.47;78.08;99677.73;437318;1246;109302;-42
2023/05/07 21:34:15;;;;;;;11.00;7.20;;;;;;;4.30;78.23;99680.85;437412;1250;99224;-43
2023/05/07 21:54:26;;;;;;;17.50;11.50;;;;;;;4.09;79.01;99676.23;437352;1261;99208;-40
2023/05/07 22:04:30;;;;;;;17.60;12.20;;;;;;;3.90;79.19;99676.63;437256;1250;111625;-42
2023/05/07 22:14:33;;;;;;;13.70;8.30;;;;;;;3.79;79.23;99678.73;437220;1250;107354;-42
2023/05/07 22:24:37;;;;;;;9.90;6.70;;;;;;;3.74;79.36;99681.48;437358;1250;99262;-41
2023/05/07 22:34:41;;;;;;;11.20;7.20;;;;;;;3.71;79.63;99678.30;437291;1247;109513;-40
2023/05/07 22:44:44;;;;;;;13.80;8.60;;;;;;;3.63;79.68;99673.36;437380;1247;99257;-40
2023/05/07 22:54:48;;;;;;;17.80;9.80;;;;;;;3.58;79.99;99670.98;437484;1250;110754;-41
2023/05/07 23:04:58;;;;;;;14.00;9.80;;;;;;;3.43;80.05;99667.61;437445;1250;107267;-42
2023/05/07 23:15:01;;;;;;;11.30;8.10;;;;;;;3.38;80.11;99665.14;437364;1247;99119;-43
2023/05/07 23:25:07;;;;;;;8.90;6.10;;;;;;;3.38;80.32;99668.09;437426;1261;108304;-41
2023/05/07 23:35:11;;;;;;;12.10;6.50;;;;;;;3.37;80.56;99668.41;437458;1250;99376;-42
2023/05/07 23:45:14;;;;;;;13.30;9.10;;;;;;;3.29;80.57;99658.92;437415;1250;111645;-41
2023/05/07 23:55:18;;;;;;;15.40;9.90;;;;;;;3.15;80.76;99653.45;437445;1250;107474;-41
